Latest Weather Observations for Marree Airport

IDS60801

Issued at 7:31 pm CST Saturday 1 October 2016 (issued every 30 minutes, with the page automatically refreshed every 10 minutes)

About weather observations | Map of weather stations | Latest weather observations for SA | Other Formats
Station Details ID: 017126 Name: MARREE AERO Lat: -29.66 Lon: 138.07 Height: 50.0 m
Data from the previous 72 hours. | See also: Recent months at Marree Airport
Date/Time
CST
Temp
°C
App
Temp
°C
Dew
Point
°C
Rel
Hum
%
Delta-T
°C
Wind Press
QNH
hPa
Press
MSL
hPa
Rain since
9am
mm
Dir  Spd
km/h
Gust
km/h
Spd
kts
Gust
kts
01/07:30pm 21.5 16.8 0.7 25 9.5 NNE 15 17 8 9 1006.1 1005.9 0.0
01/07:00pm 22.7 17.5 -0.1 22 10.3 NNE 17 20 9 11 1005.9 1005.7 0.0
01/06:30pm 24.4 18.5 -0.7 19 11.4 N 20 26 11 14 1005.9 1005.7 0.0
01/06:00pm 25.9 18.8 -1.0 17 12.3 N 26 35 14 19 1005.7 1005.5 0.0
01/05:30pm 27.0 19.4 -1.8 15 13.1 NNW 28 43 15 23 1005.8 1005.6 0.0
01/05:00pm 27.7 19.6 -3.2 13 13.7 NNW 30 37 16 20 1006.0 1005.8 0.0
01/04:30pm 28.0 19.8 -1.0 15 13.5 N 32 48 17 26 1006.1 1005.9 0.0
01/04:00pm 28.1 19.2 -1.9 14 13.7 NNW 35 46 19 25 1006.3 1006.2 0.0
01/03:30pm 27.9 19.7 -1.1 15 13.4 NNW 32 41 17 22 1006.6 1006.5 0.0
01/03:00pm 27.7 19.4 -0.4 16 13.2 N 33 46 18 25 1007.1 1007.0 0.0
01/02:30pm 27.5 19.9 0.3 17 12.9 NNW 30 41 16 22 1007.4 1007.3 0.0
01/02:00pm 27.3 18.7 0.1 17 12.8 N 35 46 19 25 1007.9 1007.8 0.0
01/01:30pm 26.4 18.2 0.2 18 12.3 N 33 43 18 23 1008.3 1008.2 0.0
01/01:06pm 27.2 19.6 0.8 18 12.6 N 30 57 16 31 1008.4 1008.3 0.0
01/01:00pm 26.6 19.1 1.1 19 12.1 NNW 30 39 16 21 1008.7 1008.6 0.0
01/12:30pm 24.8 17.2 0.3 20 11.4 NNW 30 39 16 21 1009.5 1009.3 0.0
01/12:00pm 24.6 17.1 1.5 22 10.9 NNW 30 46 16 25 1010.2 1010.0 0.0
01/11:56am 24.7 17.6 1.6 22 10.9 NNW 28 46 15 25 1010.2 1010.0 0.0
01/11:30am 23.7 16.6 1.4 23 10.5 NNW 28 35 15 19 1010.9 1010.7 0.0
01/11:00am 23.1 16.4 1.5 24 10.1 N 26 35 14 19 1011.5 1011.3 0.0
01/10:30am 21.8 15.6 2.0 27 9.3 N 24 33 13 18 1012.0 1011.8 0.0
01/10:00am 21.7 16.4 2.9 29 8.9 N 20 32 11 17 1012.2 1012.0 0.0
01/09:30am 20.1 14.9 2.5 31 8.2 N 19 26 10 14 1012.5 1012.3 0.0
01/09:00am 18.7 13.6 3.3 36 7.2 N 19 24 10 13 1012.7 1012.6 0.0
01/08:30am 16.5 12.4 4.2 44 5.8 N 15 17 8 9 1012.6 1012.5 0.0
01/08:00am 14.0 10.3 4.6 53 4.4 N 13 15 7 8 1012.6 1012.5 0.0
01/07:30am 11.3 8.6 5.6 68 2.6 N 9 13 5 7 1012.7 1012.6 0.0
01/07:00am 9.5 8.4 4.9 73 2.1 CALM 0 0 0 0 1012.4 1012.3 0.0
01/06:30am 6.8 5.6 4.8 87 0.9 CALM 0 0 0 0 1012.2 1012.1 0.0
01/06:00am 6.0 3.5 3.8 86 0.9 ESE 6 7 3 4 1011.7 1011.5 0.0
01/05:30am 6.0 4.2 3.2 82 1.2 ENE 2 7 1 4 1011.3 1011.1 0.0
01/05:00am 7.0 5.6 3.6 79 1.4 CALM 0 0 0 0 1010.9 1010.7 0.0
01/04:30am 7.1 5.3 3.5 78 1.5 N 2 6 1 3 1010.7 1010.5 0.0
01/04:00am 7.7 4.6 3.7 76 1.7 N 9 11 5 6 1010.4 1010.2 0.0
01/03:30am 8.0 4.6 3.8 75 1.8 N 11 13 6 7 1010.6 1010.4 0.0
01/03:00am 8.4 6.3 3.8 73 2.0 E 4 9 2 5 1010.6 1010.4 0.0
01/02:30am 8.7 7.4 4.1 73 2.0 CALM 0 0 0 0 1010.7 1010.5 0.0
01/02:00am 8.4 7.1 4.0 74 1.9 CALM 0 0 0 0 1010.6 1010.4 0.0
01/01:30am 9.0 5.6 4.0 71 2.2 WSW 11 13 6 7 1010.7 1010.5 0.0
01/01:00am 9.3 5.9 4.1 70 2.3 WSW 11 11 6 6 1010.9 1010.7 0.0
01/12:30am 9.9 6.8 3.6 65 2.8 W 9 11 5 6 1011.3 1011.1 0.0
01/12:00am 9.9 7.2 3.9 66 2.6 NW 7 11 4 6 1011.3 1011.1 0.0
 
Date/Time
CST
Temp
°C
App
Temp
°C
Dew
Point
°C
Rel
Hum
%
Delta-T
°C
Wind Press
QNH
hPa
Press
MSL
hPa
Rain since
9am
mm
Dir  Spd
km/h
Gust
km/h
Spd
kts
Gust
kts
30/11:30pm 11.1 8.1 3.9 61 3.2 WNW 9 11 5 6 1011.1 1010.9 0.0
30/11:00pm 10.9 7.9 3.9 62 3.1 W 9 11 5 6 1011.1 1010.9 0.0
30/10:30pm 11.0 7.2 3.8 61 3.2 W 13 15 7 8 1011.4 1011.2 0.0
30/10:00pm 11.1 8.0 3.4 59 3.4 W 9 11 5 6 1011.2 1011.0 0.0
30/09:30pm 12.0 8.8 3.3 55 3.9 NW 9 11 5 6 1011.1 1010.9 0.0
30/09:00pm 12.8 8.9 3.2 52 4.3 NW 13 15 7 8 1011.2 1011.0 0.0
30/08:30pm 13.1 9.5 3.2 51 4.4 WNW 11 13 6 7 1011.1 1010.9 0.0
30/08:00pm 13.8 9.5 3.0 48 4.8 WNW 15 15 8 8 1010.8 1010.6 0.0
30/07:30pm 14.6 10.6 2.8 45 5.3 WNW 13 15 7 8 1010.2 1010.0 0.0
30/07:00pm 16.0 11.9 2.4 40 6.1 WNW 13 17 7 9 1010.1 1009.9 0.0
30/06:30pm 17.6 12.0 1.2 33 7.3 W 20 26 11 14 1009.5 1009.3 0.0
30/06:00pm 18.4 12.9 1.9 33 7.5 WNW 20 26 11 14 1009.4 1009.2 0.0
30/05:30pm 19.1 13.6 1.6 31 8.0 W 20 30 11 16 1009.5 1009.3 0.0
30/05:00pm 19.4 13.5 1.9 31 8.0 WNW 22 33 12 18 1009.2 1009.1 0.0
30/04:30pm 20.2 14.7 2.1 30 8.4 W 20 32 11 17 1009.1 1009.0 0.0
30/04:00pm 20.1 15.4 2.9 32 8.1 WNW 17 26 9 14 1009.1 1009.0 0.0
30/03:30pm 19.9 14.2 2.7 32 8.0 WNW 22 35 12 19 1009.5 1009.3 0.0
30/03:00pm 19.7 14.3 2.6 32 8.0 W 20 33 11 18 1009.9 1009.7 0.0
30/02:30pm 19.1 13.4 2.9 34 7.6 W 22 33 12 18 1010.1 1009.9 0.0
30/02:00pm 18.9 13.2 3.1 35 7.4 WSW 22 32 12 17 1010.3 1010.1 0.0
30/01:30pm 18.6 13.3 2.9 35 7.3 SW 20 35 11 19 1010.9 1010.7 0.0
30/01:00pm 18.0 12.0 3.1 37 6.9 SW 24 35 13 19 1011.6 1011.4 0.0
30/12:30pm 17.8 11.7 2.9 37 6.9 WSW 24 37 13 20 1012.0 1011.8 0.0
30/12:00pm 17.0 11.4 3.3 40 6.3 WSW 22 37 12 20 1012.4 1012.3 0.0
30/11:30am 16.0 10.4 3.4 43 5.8 SW 22 32 12 17 1012.6 1012.5 0.0
30/11:00am 15.7 10.2 3.8 45 5.5 WSW 22 33 12 18 1013.1 1013.0 0.0
30/10:30am 15.6 9.3 3.7 45 5.5 WSW 26 43 14 23 1012.9 1012.8 0.0
30/10:00am 14.8 8.1 3.9 48 5.0 WSW 28 39 15 21 1012.7 1012.6 0.0
30/09:30am 14.0 6.5 4.3 52 4.5 WSW 33 46 18 25 1012.3 1012.2 0.0
30/09:00am 13.6 5.8 4.7 55 4.1 WSW 35 48 19 26 1012.3 1012.2 0.0
30/08:30am 12.5 4.7 5.0 60 3.5 WSW 35 46 19 25 1012.2 1012.1 0.0
30/08:00am 11.4 3.6 4.8 64 3.0 WSW 35 43 19 23 1011.6 1011.4 0.0
30/07:30am 10.6 3.3 4.3 65 2.8 W 32 41 17 22 1011.1 1010.9 0.0
30/07:00am 9.6 4.5 4.2 69 2.4 WSW 20 26 11 14 1010.5 1010.3 0.0
30/06:30am 8.5 4.0 4.1 74 1.9 W 17 20 9 11 1009.9 1009.7 0.0
30/06:00am 8.3 1.6 3.9 74 1.9 W 28 35 15 19 1009.5 1009.3 0.0
30/05:30am 8.5 1.9 4.1 74 1.9 W 28 33 15 18 1009.5 1009.3 0.0
30/05:00am 8.8 2.5 3.8 71 2.2 W 26 39 14 21 1009.4 1009.2 0.0
30/04:30am 8.6 2.6 3.6 71 2.2 W 24 32 13 17 1009.1 1009.0 0.0
30/04:00am 8.8 1.7 3.6 70 2.3 W 30 35 16 19 1008.7 1008.6 0.0
30/03:30am 9.2 1.7 3.6 68 2.4 WSW 32 41 17 22 1008.7 1008.6 0.0
30/03:00am 9.4 1.0 3.6 67 2.5 WSW 37 44 20 24 1008.9 1008.8 0.0
30/02:30am 9.4 2.2 3.2 65 2.7 WSW 30 35 16 19 1009.0 1008.9 0.0
30/02:00am 9.8 1.4 3.5 65 2.7 WSW 37 46 20 25 1009.1 1009.0 0.0
30/01:30am 9.9 1.7 2.7 61 3.1 W 35 44 19 24 1009.4 1009.2 0.0
30/01:00am 10.0 2.2 2.8 61 3.1 W 33 43 18 23 1009.6 1009.4 0.0
30/12:30am 10.2 2.0 2.8 60 3.2 W 35 44 19 24 1009.5 1009.3 0.0
30/12:00am 10.9 3.0 2.5 56 3.6 W 33 44 18 24 1009.5 1009.3 0.0
 
Date/Time
CST
Temp
°C
App
Temp
°C
Dew
Point
°C
Rel
Hum
%
Delta-T
°C
Wind Press
QNH
hPa
Press
MSL
hPa
Rain since
9am
mm
Dir  Spd
km/h
Gust
km/h
Spd
kts
Gust
kts
29/11:30pm 11.0 2.8 2.6 56 3.6 W 35 48 19 26 1009.4 1009.2 0.0
29/11:00pm 11.3 3.4 2.1 53 3.9 WSW 33 46 18 25 1009.4 1009.2 0.0
29/10:30pm 11.7 4.7 2.2 52 4.1 WSW 28 39 15 21 1009.7 1009.5 0.0
29/10:00pm 12.2 4.4 1.8 49 4.5 WSW 32 43 17 23 1009.9 1009.7 0.0
29/09:30pm 12.6 4.8 1.9 48 4.6 WSW 32 39 17 21 1010.0 1009.8 0.0
29/09:00pm 13.1 4.0 1.8 46 4.9 W 39 52 21 28 1009.8 1009.6 0.0
29/08:34pm 13.6 5.7 1.3 43 5.3 WSW 32 54 17 29 1009.4 1009.2 0.0
29/08:30pm 13.5 6.3 0.9 42 5.4 WSW 28 39 15 21 1009.4 1009.2 0.0
29/08:00pm 13.9 4.6 0.5 40 5.7 WSW 39 52 21 28 1008.7 1008.6 0.0
29/07:54pm 14.1 6.0 1.1 41 5.6 WSW 33 52 18 28 1008.6 1008.5 0.0
29/07:30pm 14.1 5.4 1.7 43 5.4 WSW 37 48 20 26 1008.2 1008.1 0.0
29/07:07pm 14.6 5.9 2.2 43 5.5 WSW 37 57 20 31 1007.9 1007.8 0.0
29/07:00pm 14.7 5.5 1.3 40 5.8 WSW 39 52 21 28 1007.7 1007.6 0.0
29/06:42pm 15.4 7.4 0.4 36 6.4 WSW 32 50 17 27 1007.2 1007.1 0.0
29/06:30pm 15.4 6.8 0.4 36 6.4 SW 35 44 19 24 1007.0 1006.9 0.0
29/06:24pm 15.4 6.9 0.8 37 6.3 SW 35 54 19 29 1007.0 1006.9 0.0
29/06:00pm 16.0 5.7 0.2 34 6.8 WSW 44 61 24 33 1006.5 1006.4 0.0
29/05:33pm 16.2 6.1 0.3 34 6.8 W 43 63 23 34 1006.3 1006.2 0.0
29/05:30pm 16.3 6.5 0.0 33 7.0 WSW 41 54 22 29 1006.3 1006.2 0.0
29/05:05pm 16.5 7.8 -0.2 32 7.1 WSW 35 54 19 29 1006.1 1006.0 0.0
29/05:00pm 16.4 7.8 0.1 33 7.0 WSW 35 50 19 27 1006.1 1006.0 0.0
29/04:30pm 16.6 6.9 0.3 33 7.1 WSW 41 56 22 30 1005.9 1005.8 0.0
29/04:00pm 16.7 6.0 -0.1 32 7.2 W 46 63 25 34 1005.6 1005.5 0.0
29/03:55pm 16.6 6.2 -0.1 32 7.2 WSW 44 63 24 34 1005.6 1005.5 0.0
29/03:30pm 16.6 5.5 0.3 33 7.1 WSW 48 61 26 33 1005.5 1005.4 0.0
29/03:08pm 16.7 6.3 -0.1 32 7.2 W 44 63 24 34 1005.2 1005.1 0.0
29/03:00pm 17.1 6.5 0.7 33 7.2 W 46 61 25 33 1005.4 1005.3 0.0
29/02:30pm 16.9 5.4 0.1 32 7.3 W 50 65 27 35 1005.3 1005.2 0.0
29/02:01pm 17.2 5.7 -0.1 31 7.5 W 50 69 27 37 1005.2 1005.1 0.0
29/02:00pm 17.3 5.4 0.0 31 7.5 W 52 69 28 37 1005.3 1005.2 0.0
29/01:32pm 18.2 6.4 0.4 30 7.8 W 52 70 28 38 1005.3 1005.2 0.0
29/01:30pm 17.5 5.3 0.2 31 7.6 W 54 70 29 38 1005.2 1005.1 0.0
29/01:01pm 17.9 6.5 0.6 31 7.6 W 50 69 27 37 1005.4 1005.3 0.0
29/01:00pm 17.7 5.9 0.4 31 7.6 W 52 69 28 37 1005.5 1005.4 0.0
29/12:30pm 16.9 4.7 0.5 33 7.2 W 54 74 29 40 1005.6 1005.5 0.0
29/12:01pm 16.7 5.2 -0.1 32 7.2 W 50 69 27 37 1006.0 1005.9 0.0
29/12:00pm 17.4 6.3 0.1 31 7.5 W 48 63 26 34 1006.1 1006.0 0.0
29/11:30am 15.8 4.0 0.4 35 6.6 W 52 74 28 40 1006.3 1006.2 0.0
29/11:00am 15.1 2.5 0.2 36 6.3 W 56 74 30 40 1006.5 1006.4 0.0
29/10:42am 14.4 1.9 0.6 39 5.9 W 56 74 30 40 1006.5 1006.4 0.0
29/10:30am 15.1 3.0 0.9 38 6.2 W 54 69 29 37 1006.7 1006.6 0.0
29/10:00am 13.6 1.1 0.9 42 5.4 W 56 74 30 40 1006.6 1006.5 0.0
29/09:40am 14.0 1.2 0.3 39 5.8 W 57 76 31 41 1006.8 1006.7 0.0
29/09:30am 13.3 0.2 0.7 42 5.3 W 59 74 32 40 1006.8 1006.7 0.0
29/09:01am 13.4 0.9 1.1 43 5.3 W 56 74 30 40 1006.7 1006.6 0.0
29/09:00am 13.2 0.5 0.9 43 5.2 W 57 74 31 40 1006.7 1006.6 0.0
29/08:31am 12.7 0.6 0.8 44 5.0 W 54 72 29 39 1006.9 1006.8 0.0
29/08:30am 12.6 0.1 1.0 45 4.9 W 56 72 30 39 1006.9 1006.8 0.0
29/08:09am 11.9 0.6 1.0 47 4.6 WNW 50 70 27 38 1006.8 1006.7 0.0
29/08:00am 11.4 -0.3 0.8 48 4.4 WNW 52 65 28 35 1006.7 1006.6 0.0
29/07:53am 11.4 0.8 0.8 48 4.4 WNW 46 65 25 35 1006.7 1006.6 0.0
29/07:30am 10.9 0.3 0.9 50 4.2 WNW 46 59 25 32 1006.4 1006.3 0.0
29/07:13am 10.3 0.2 0.6 51 4.0 WNW 43 63 23 34 1006.2 1006.1 0.0
29/07:00am 10.1 0.4 0.7 52 3.9 WNW 41 56 22 30 1006.1 1006.0 0.0
29/06:30am 9.4 0.1 0.8 55 3.5 WNW 39 50 21 27 1005.9 1005.8 0.0
29/06:00am 9.2 -0.5 0.6 55 3.5 W 41 56 22 30 1005.5 1005.4 0.0
29/05:30am 9.3 -0.7 0.7 55 3.5 W 43 56 23 30 1005.2 1005.1 0.0
29/05:00am 9.6 -0.1 0.8 54 3.6 WNW 41 59 22 32 1004.8 1004.7 0.0
29/04:33am 9.8 -0.2 0.7 53 3.7 W 43 61 23 33 1004.4 1004.3 0.0
29/04:30am 9.7 0.0 0.6 53 3.7 W 41 56 22 30 1004.5 1004.4 0.0
29/04:00am 9.9 0.2 0.5 52 3.8 W 41 54 22 29 1004.6 1004.5 0.0
29/03:46am 10.1 0.0 0.4 51 3.9 W 43 61 23 33 1004.5 1004.4 0.0
29/03:30am 10.1 0.0 0.4 51 4.0 W 43 54 23 29 1004.5 1004.4 0.0
29/03:00am 10.4 0.7 0.2 49 4.2 W 41 54 22 29 1004.3 1004.2 0.0
29/02:30am 10.7 -0.3 0.4 49 4.2 W 48 72 26 39 1004.4 1004.3 0.0
29/02:07am 10.8 -0.3 0.2 48 4.3 W 48 69 26 37 1004.4 1004.3 0.0
29/02:00am 10.9 -0.5 0.3 48 4.3 W 50 63 27 34 1004.5 1004.4 0.0
29/01:40am 11.0 -0.1 0.1 47 4.4 W 48 67 26 36 1004.8 1004.7 0.0
29/01:30am 11.0 0.0 0.4 48 4.4 W 48 63 26 34 1004.8 1004.7 0.0
29/01:00am 11.1 -0.3 0.5 48 4.4 W 50 70 27 38 1005.0 1004.9 0.0
29/12:30am 11.5 -1.0 0.6 47 4.5 WSW 56 74 30 40 1004.3 1004.2 0.0
29/12:17am 11.6 -1.6 0.1 45 4.7 WSW 59 78 32 42 1004.3 1004.2 0.0
29/12:06am 12.0 1.6 -0.5 42 5.1 W 44 74 24 40 1004.1 1004.0 0.0
29/12:04am 12.0 2.1 -0.8 41 5.2 W 41 63 22 34 1004.3 1004.2 0.0
29/12:00am 12.0 1.7 -1.2 40 5.3 W 43 57 23 31 1004.5 1004.4 0.0
 
Date/Time
CST
Temp
°C
App
Temp
°C
Dew
Point
°C
Rel
Hum
%
Delta-T
°C
Wind Press
QNH
hPa
Press
MSL
hPa
Rain since
9am
mm
Dir  Spd
km/h
Gust
km/h
Spd
kts
Gust
kts
28/11:30pm 11.9 2.7 1.5 49 4.4 W 39 52 21 28 1004.4 1004.3 0.0
28/11:03pm 12.3 1.3 1.0 46 4.8 WSW 48 67 26 36 1004.6 1004.5 0.0
28/11:00pm 12.4 1.0 0.8 45 4.9 WSW 50 67 27 36 1004.4 1004.3 0.0
28/10:30pm 13.2 0.4 -0.1 40 5.5 WSW 57 78 31 42 1004.4 1004.3 0.0
28/10:06pm 13.7 1.2 1.7 44 5.2 WSW 57 76 31 41 1003.9 1003.8 0.0
28/10:00pm 14.0 0.6 1.3 42 5.5 WSW 61 76 33 41 1003.9 1003.8 0.0
28/09:30pm 15.9 3.2 -0.8 32 7.0 SW 56 74 30 40 1002.4 1002.3 0.0
28/09:00pm 17.5 6.0 -3.3 24 8.5 WSW 48 69 26 37 1001.8 1001.7 0.0
28/08:30pm 18.2 5.1 -3.8 22 8.9 WSW 56 80 30 43 1001.2 1001.1 0.0
28/08:00pm 19.4 5.0 -3.5 21 9.4 WSW 63 83 34 45 1000.3 1000.2 0.0

Other Formats:

Comma delimited format used in spreadsheet applications
http://www.bom.gov.au/fwo/IDS60801/IDS60801.95480.axf

JavaScript Object Notation format (JSON) in row-major order
http://www.bom.gov.au/fwo/IDS60801/IDS60801.95480.json